createdAt,value
2022-08-21T04:00:25.185Z,10.80
2022-08-21T04:05:25.134Z,14.60
2022-08-21T04:10:25.083Z,12.90
2022-08-21T04:15:32.060Z,14.70
2022-08-21T04:20:24.968Z,14.10
2022-08-21T04:25:24.913Z,15.70
2022-08-21T04:30:27.587Z,12.30
2022-08-21T04:35:24.806Z,15.80
2022-08-21T04:40:24.787Z,17.00
2022-08-21T04:45:24.699Z,16.80
2022-08-21T04:50:24.646Z,20.30
2022-08-21T04:55:24.589Z,17.30
2022-08-21T05:00:24.534Z,16.70
2022-08-21T05:05:24.478Z,22.00
2022-08-21T05:10:24.426Z,18.00
2022-08-21T05:15:24.501Z,17.30
2022-08-21T05:20:24.318Z,17.80
2022-08-21T05:25:24.267Z,17.90
2022-08-21T05:30:24.206Z,18.40
2022-08-21T05:35:24.149Z,19.90
2022-08-21T05:40:24.224Z,15.00
2022-08-21T05:45:41.392Z,14.60
2022-08-21T05:50:24.990Z,12.30
2022-08-21T05:55:23.936Z,14.60
2022-08-21T06:00:23.879Z,13.20
2022-08-21T06:05:33.422Z,14.00
2022-08-21T06:10:24.779Z,11.10
2022-08-21T06:15:23.896Z,10.20
2022-08-21T06:20:23.658Z,11.00
2022-08-21T06:25:23.605Z,9.80
2022-08-21T06:30:23.558Z,12.20
2022-08-21T06:35:23.500Z,9.20
2022-08-21T06:40:23.504Z,10.00
2022-08-21T06:45:23.395Z,10.40
2022-08-21T06:50:23.342Z,9.60
2022-08-21T06:55:25.361Z,9.90
2022-08-21T07:00:23.238Z,9.90
2022-08-21T07:05:23.179Z,9.20
2022-08-21T07:10:23.126Z,10.00
2022-08-21T07:15:23.076Z,8.30
2022-08-21T07:20:23.026Z,9.60
2022-08-21T07:25:22.969Z,9.90
2022-08-21T07:30:23.043Z,9.30
2022-08-21T07:35:22.856Z,11.80
2022-08-21T07:40:22.927Z,14.30
2022-08-21T07:45:22.760Z,8.20
2022-08-21T07:50:22.708Z,9.80
2022-08-21T07:55:22.689Z,10.60
2022-08-21T08:00:22.594Z,9.70
2022-08-21T08:05:22.538Z,8.70
2022-08-21T08:10:22.496Z,12.60
2022-08-21T08:15:22.429Z,9.80
2022-08-21T08:20:22.374Z,7.10
2022-08-21T08:25:22.334Z,7.80
2022-08-21T08:30:22.258Z,6.40
2022-08-21T08:35:24.174Z,6.70
2022-08-21T08:40:22.204Z,8.20
2022-08-21T08:45:22.095Z,7.90
2022-08-21T08:50:22.050Z,8.50
2022-08-21T08:55:26.614Z,9.80
2022-08-21T09:00:21.946Z,7.30
2022-08-21T09:05:21.885Z,7.10
2022-08-21T09:10:21.841Z,5.80
2022-08-21T09:15:21.978Z,8.00
2022-08-21T09:20:21.721Z,7.50
2022-08-21T09:25:21.684Z,7.60
2022-08-21T09:30:21.615Z,5.10
2022-08-21T09:35:21.570Z,5.60
2022-08-21T09:40:21.567Z,4.90
2022-08-21T09:45:21.464Z,7.20
2022-08-21T09:50:21.411Z,6.10
2022-08-21T09:55:21.357Z,5.10
2022-08-21T10:00:21.303Z,4.80
2022-08-21T10:05:21.250Z,4.80
2022-08-21T10:10:21.198Z,3.80
2022-08-21T10:15:28.198Z,3.90
2022-08-21T10:20:21.090Z,5.20
2022-08-21T10:25:21.031Z,3.50
2022-08-21T10:30:20.980Z,5.60
2022-08-21T10:35:20.939Z,3.10
2022-08-21T10:40:20.928Z,5.30
2022-08-21T10:45:20.815Z,2.90
2022-08-21T10:50:20.762Z,4.40
2022-08-21T10:55:20.712Z,4.20
2022-08-21T11:00:20.656Z,3.60
2022-08-21T11:05:20.602Z,4.00
2022-08-21T11:10:20.547Z,3.20
2022-08-21T11:15:29.385Z,3.90
2022-08-21T11:20:21.450Z,3.40
2022-08-21T11:25:20.389Z,3.90
2022-08-21T11:30:20.335Z,2.90
2022-08-21T11:35:20.280Z,4.00
2022-08-21T11:40:20.282Z,4.50
2022-08-21T11:45:20.173Z,3.30
2022-08-21T11:50:34.414Z,5.00
2022-08-21T11:55:23.652Z,4.60
2022-08-21T12:00:20.021Z,4.60
2022-08-21T12:05:19.960Z,3.50
2022-08-21T12:10:19.908Z,3.40
2022-08-21T12:15:19.853Z,3.70
2022-08-21T12:20:19.800Z,3.90
2022-08-21T12:25:21.781Z,5.80
2022-08-21T12:30:19.693Z,5.20
2022-08-21T12:35:25.327Z,2.60
2022-08-21T12:40:20.612Z,3.40
2022-08-21T12:45:19.555Z,3.00
2022-08-21T12:50:19.475Z,4.70
2022-08-21T12:55:19.429Z,2.70
2022-08-21T13:00:19.376Z,5.40
2022-08-21T13:05:19.321Z,3.60
2022-08-21T13:10:19.271Z,3.80
2022-08-21T13:15:19.210Z,2.60
2022-08-21T13:20:19.159Z,1.90
2022-08-21T13:25:19.104Z,4.00
2022-08-21T13:30:19.051Z,2.10
2022-08-21T13:35:19.001Z,2.60
2022-08-21T13:40:19.032Z,2.50
2022-08-21T13:45:18.893Z,4.00
2022-08-21T13:50:18.836Z,2.30
2022-08-21T13:55:18.785Z,2.00
2022-08-21T14:00:18.726Z,3.70
2022-08-21T14:05:18.677Z,3.00
2022-08-21T14:10:18.625Z,3.10
2022-08-21T14:15:18.572Z,2.10
2022-08-21T14:20:18.517Z,1.50
2022-08-21T14:25:18.464Z,0.90
2022-08-21T14:30:18.410Z,3.00
2022-08-21T14:35:18.359Z,1.30
2022-08-21T14:40:18.380Z,2.30
2022-08-21T14:45:18.252Z,2.00
2022-08-21T14:50:19.195Z,1.90
2022-08-21T14:55:18.141Z,2.00
2022-08-21T15:00:18.088Z,1.80
2022-08-21T15:05:18.541Z,1.90
2022-08-21T15:10:18.981Z,3.00
2022-08-21T15:15:17.923Z,2.50
2022-08-21T15:20:17.869Z,3.50
2022-08-21T15:25:17.819Z,2.30
2022-08-21T15:30:17.766Z,2.60
2022-08-21T15:35:17.719Z,1.50
2022-08-21T15:40:17.706Z,2.10
2022-08-21T15:45:17.607Z,1.50
2022-08-21T15:50:17.551Z,2.30
2022-08-21T15:55:17.501Z,1.70
2022-08-21T16:00:17.445Z,2.00
2022-08-21T16:05:17.397Z,2.10
2022-08-21T16:10:17.330Z,1.40
2022-08-21T16:15:24.321Z,2.40
2022-08-21T16:20:17.234Z,2.30
2022-08-21T16:25:17.562Z,2.60
2022-08-21T16:30:17.120Z,3.80
2022-08-21T16:35:17.075Z,2.20
2022-08-21T16:40:17.113Z,2.00
2022-08-21T16:45:16.974Z,2.20
2022-08-21T16:50:16.913Z,2.30
2022-08-21T16:55:16.862Z,5.40
2022-08-21T17:00:16.810Z,2.10
2022-08-21T17:05:16.734Z,5.70
2022-08-21T17:10:16.831Z,2.20
2022-08-21T17:15:16.753Z,3.50
2022-08-21T17:20:16.589Z,3.10
2022-08-21T17:25:16.562Z,3.70
2022-08-21T17:30:16.471Z,2.60
2022-08-21T17:35:16.414Z,2.70
2022-08-21T17:40:16.544Z,2.10
2022-08-21T17:45:16.317Z,2.80
2022-08-21T17:50:16.799Z,2.20
2022-08-21T17:55:16.185Z,2.20
2022-08-21T18:00:16.141Z,2.90
2022-08-21T18:05:16.092Z,2.50
2022-08-21T18:10:16.039Z,5.30
2022-08-21T18:15:16.002Z,1.60
2022-08-21T18:20:15.914Z,4.90
2022-08-21T18:25:15.879Z,3.20
2022-08-21T18:30:15.827Z,3.30
2022-08-21T18:35:15.756Z,2.70
2022-08-21T18:40:15.839Z,2.00
2022-08-21T18:45:15.664Z,4.60
2022-08-21T18:50:15.591Z,3.50
2022-08-21T18:55:15.555Z,4.40
2022-08-21T19:00:15.500Z,3.10
2022-08-21T19:05:15.428Z,4.80
2022-08-21T19:10:29.240Z,3.80
2022-08-21T19:15:16.360Z,9.40
2022-08-21T19:20:16.769Z,8.30
2022-08-21T19:25:16.222Z,6.50
2022-08-21T19:30:15.175Z,8.00
2022-08-21T19:35:15.117Z,13.30
2022-08-21T19:40:15.084Z,7.80
2022-08-21T19:45:15.009Z,9.20
2022-08-21T19:50:17.824Z,4.00
2022-08-21T19:55:15.900Z,5.70
2022-08-21T20:00:17.097Z,4.10
2022-08-21T20:05:14.788Z,7.20
2022-08-21T20:10:14.791Z,3.60
2022-08-21T20:15:14.702Z,4.00
2022-08-21T20:20:14.627Z,4.20
2022-08-21T20:25:14.571Z,5.60
2022-08-21T20:30:14.507Z,5.10
2022-08-21T20:35:14.464Z,5.80
2022-08-21T20:40:14.526Z,4.30
2022-08-21T20:45:14.348Z,4.00
2022-08-21T20:50:14.339Z,4.70
2022-08-21T20:55:14.246Z,4.00
2022-08-21T21:00:14.792Z,4.20
2022-08-21T21:05:14.145Z,2.70
2022-08-21T21:10:14.070Z,6.10
2022-08-21T21:15:14.041Z,4.20
2022-08-21T21:20:13.977Z,3.00
2022-08-21T21:25:13.922Z,5.30
2022-08-21T21:30:14.396Z,4.90
2022-08-21T21:35:13.813Z,6.00
2022-08-21T21:40:13.806Z,4.20
2022-08-21T21:45:13.809Z,3.50
2022-08-21T21:50:14.433Z,4.00
2022-08-21T21:55:14.594Z,2.90
2022-08-21T22:00:13.546Z,4.20
2022-08-21T22:05:13.483Z,4.70
2022-08-21T22:15:26.540Z,6.00
2022-08-21T22:20:13.323Z,5.30
2022-08-21T22:25:13.264Z,3.50
2022-08-21T22:30:13.219Z,4.70
2022-08-21T22:35:13.157Z,6.50
2022-08-21T22:40:13.183Z,6.10
2022-08-21T22:45:14.471Z,5.20
2022-08-21T22:50:12.996Z,4.00
2022-08-21T22:55:12.932Z,11.80
2022-08-21T23:00:12.884Z,4.80
2022-08-21T23:05:12.830Z,6.40
2022-08-21T23:10:12.790Z,6.40
2022-08-21T23:15:12.720Z,6.90
2022-08-21T23:20:13.661Z,8.80
2022-08-21T23:25:12.620Z,6.30
